createdAt,value
2019-05-10T00:02:01.699Z,31.17
2019-05-10T00:04:48.865Z,30.30
2019-05-10T00:07:37.220Z,30.13
2019-05-10T00:10:07.179Z,30.00
2019-05-10T00:12:44.886Z,33.70
2019-05-10T00:15:14.867Z,34.73
2019-05-10T00:17:44.590Z,61.20
2019-05-10T00:20:14.061Z,36.23
2019-05-10T00:22:44.366Z,33.17
2019-05-10T00:25:13.755Z,33.93
2019-05-10T00:27:43.536Z,44.90
2019-05-10T00:30:13.391Z,35.23
2019-05-10T00:32:43.035Z,37.67
2019-05-10T00:35:12.420Z,40.40
2019-05-10T00:37:41.678Z,37.30
2019-05-10T00:40:12.543Z,37.47
2019-05-10T00:42:43.041Z,41.80
2019-05-10T00:45:12.876Z,33.70
2019-05-10T00:47:42.156Z,37.13
2019-05-10T00:50:11.465Z,41.70
2019-05-10T00:52:43.447Z,32.13
2019-05-10T00:55:19.057Z,37.43
2019-05-10T00:57:43.881Z,33.77
2019-05-10T01:00:13.612Z,35.20
2019-05-10T01:02:43.339Z,37.53
2019-05-10T01:05:12.752Z,46.00
2019-05-10T01:07:41.995Z,32.63
2019-05-10T01:10:11.232Z,38.40
2019-05-10T01:12:43.450Z,35.83
2019-05-10T01:15:14.815Z,35.03
2019-05-10T01:17:44.349Z,33.70
2019-05-10T01:20:14.158Z,35.43
2019-05-10T01:22:45.110Z,39.07
2019-05-10T01:25:16.128Z,47.00
2019-05-10T01:27:45.426Z,36.00
2019-05-10T01:30:15.681Z,48.50
2019-05-10T01:32:45.050Z,51.20
2019-05-10T01:35:16.117Z,44.40
2019-05-10T01:37:45.416Z,38.80
2019-05-10T01:40:14.861Z,47.50
2019-05-10T01:42:45.662Z,48.60
2019-05-10T01:45:15.265Z,46.83
2019-05-10T01:47:45.944Z,59.70
2019-05-10T01:50:15.655Z,47.83
2019-05-10T01:52:44.919Z,49.43
2019-05-10T01:55:17.337Z,46.03
2019-05-10T01:57:46.610Z,47.63
2019-05-10T02:00:16.902Z,46.23
2019-05-10T02:02:46.628Z,53.40
2019-05-10T02:05:18.185Z,54.40
2019-05-10T02:07:47.785Z,51.97
2019-05-10T02:10:17.082Z,56.63
2019-05-10T02:12:46.380Z,57.37
2019-05-10T02:15:15.643Z,52.58
2019-05-10T02:17:46.708Z,57.90
2019-05-10T02:20:16.486Z,65.67
2019-05-10T02:22:45.779Z,59.83
2019-05-10T02:25:16.482Z,61.83
2019-05-10T02:27:48.086Z,60.87
2019-05-10T02:30:17.482Z,61.63
2019-05-10T02:32:48.085Z,63.57
2019-05-10T02:35:17.486Z,56.13
2019-05-10T02:37:46.755Z,54.87
2019-05-10T02:40:16.275Z,49.13
2019-05-10T02:42:47.550Z,55.73
2019-05-10T02:45:16.934Z,49.67
2019-05-10T02:47:47.302Z,52.07
2019-05-10T02:50:18.522Z,52.40
2019-05-10T02:52:47.893Z,53.53
2019-05-10T02:55:18.654Z,45.63
2019-05-10T02:57:48.879Z,49.00
2019-05-10T03:00:18.394Z,44.07
2019-05-10T03:02:49.159Z,47.20
2019-05-10T03:05:18.872Z,46.53
2019-05-10T03:07:49.172Z,45.23
2019-05-10T03:10:18.449Z,44.47
2019-05-10T03:12:50.816Z,45.73
2019-05-10T03:15:21.458Z,44.40
2019-05-10T03:17:52.602Z,43.07
2019-05-10T03:20:22.191Z,49.93
2019-05-10T03:22:51.648Z,48.40
2019-05-10T03:25:23.383Z,46.07
2019-05-10T03:27:52.615Z,48.30
2019-05-10T03:30:23.679Z,48.23
2019-05-10T03:32:53.040Z,55.33
2019-05-10T03:35:22.531Z,50.90
2019-05-10T03:37:52.149Z,52.17
2019-05-10T03:40:21.411Z,55.50
2019-05-10T03:42:52.041Z,53.97
2019-05-10T03:45:21.323Z,51.47
2019-05-10T03:47:52.524Z,52.27
2019-05-10T03:50:22.220Z,38.40
2019-05-10T03:52:52.478Z,34.80
2019-05-10T03:55:25.146Z,26.47
2019-05-10T03:57:54.418Z,25.17
2019-05-10T04:00:24.142Z,25.00
2019-05-10T04:02:55.173Z,22.30
2019-05-10T04:05:25.820Z,14.50
2019-05-10T04:07:55.131Z,21.20
2019-05-10T04:10:25.962Z,19.73
2019-05-10T04:12:55.632Z,17.53
2019-05-10T04:15:25.202Z,15.43
2019-05-10T04:17:54.474Z,14.03
2019-05-10T04:20:23.703Z,19.73
2019-05-10T04:22:52.952Z,15.30
2019-05-10T04:25:22.194Z,15.83
2019-05-10T04:27:51.457Z,17.23
2019-05-10T04:30:21.676Z,16.07
2019-05-10T04:32:52.352Z,14.20
2019-05-10T04:35:22.360Z,15.53
2019-05-10T04:37:51.879Z,15.60
2019-05-10T04:40:21.098Z,17.53
2019-05-10T04:42:50.968Z,16.30
2019-05-10T04:45:20.600Z,14.77
2019-05-10T04:47:51.201Z,16.20
2019-05-10T04:50:20.429Z,21.00
2019-05-10T04:52:51.262Z,17.97
2019-05-10T04:55:20.597Z,16.53
2019-05-10T04:57:51.457Z,17.03
2019-05-10T05:00:20.908Z,14.80
2019-05-10T05:02:50.497Z,18.40
2019-05-10T05:05:19.752Z,21.47
2019-05-10T05:07:50.512Z,16.83
2019-05-10T05:10:20.480Z,22.83
2019-05-10T05:12:50.487Z,19.63
2019-05-10T05:15:20.145Z,17.30
2019-05-10T05:17:50.699Z,17.23
2019-05-10T05:20:19.915Z,23.90
2019-05-10T05:22:49.218Z,18.20
2019-05-10T05:25:21.774Z,20.87
2019-05-10T05:28:05.316Z,22.07
2019-05-10T05:30:21.213Z,27.03
2019-05-10T05:32:50.479Z,21.00
2019-05-10T05:35:19.786Z,26.23
2019-05-10T05:37:49.019Z,21.30
2019-05-10T05:40:19.846Z,24.07
2019-05-10T05:42:49.464Z,24.57
2019-05-10T05:45:19.105Z,25.43
2019-05-10T05:47:49.869Z,24.60
2019-05-10T05:50:20.928Z,24.17
2019-05-10T05:52:50.881Z,23.03
2019-05-10T05:55:22.907Z,28.53
2019-05-10T05:57:51.595Z,32.50
2019-05-10T06:00:21.191Z,23.07
2019-05-10T06:02:50.411Z,21.20
2019-05-10T06:05:34.008Z,20.53
2019-05-10T06:07:52.344Z,15.80
2019-05-10T06:10:22.109Z,19.03
2019-05-10T06:12:52.965Z,23.10
2019-05-10T06:15:23.063Z,28.20
2019-05-10T06:17:56.997Z,18.43
2019-05-10T06:20:24.345Z,21.17
2019-05-10T06:23:05.825Z,25.63
2019-05-10T06:25:37.870Z,17.90
2019-05-10T06:27:55.609Z,24.60
2019-05-10T06:30:25.339Z,16.97
2019-05-10T06:33:00.907Z,20.97
2019-05-10T06:35:26.464Z,16.90
2019-05-10T06:37:55.712Z,13.50
2019-05-10T06:40:35.597Z,22.53
2019-05-10T06:42:56.352Z,13.33
2019-05-10T06:45:25.979Z,20.40
2019-05-10T06:47:55.508Z,19.53
2019-05-10T06:50:29.864Z,17.33
2019-05-10T06:53:00.454Z,14.27
2019-05-10T06:55:27.716Z,18.83
2019-05-10T06:58:00.706Z,16.83
2019-05-10T07:00:28.509Z,16.63
2019-05-10T07:02:57.833Z,13.83
2019-05-10T07:05:27.427Z,17.00
2019-05-10T07:08:00.027Z,20.10
2019-05-10T07:10:33.763Z,16.27
2019-05-10T07:13:03.704Z,14.90
2019-05-10T07:15:35.751Z,12.30
2019-05-10T07:18:04.122Z,13.83
2019-05-10T07:20:33.788Z,10.93
2019-05-10T07:23:06.141Z,15.13
2019-05-10T07:25:37.644Z,21.07
2019-05-10T07:28:09.492Z,9.63
2019-05-10T07:30:41.226Z,7.83
2019-05-10T07:33:10.252Z,17.23
2019-05-10T07:35:39.517Z,11.40
2019-05-10T07:38:08.732Z,7.30
2019-05-10T07:40:37.997Z,14.10
2019-05-10T07:43:07.427Z,14.40
2019-05-10T07:45:36.829Z,15.90
2019-05-10T07:48:08.119Z,9.70
2019-05-10T07:50:42.205Z,15.93
2019-05-10T07:53:08.726Z,7.30
2019-05-10T07:55:38.376Z,8.63
2019-05-10T07:58:07.625Z,10.07
2019-05-10T08:00:44.426Z,9.97
2019-05-10T08:03:16.101Z,6.77
2019-05-10T08:05:40.059Z,14.30
2019-05-10T08:08:09.662Z,8.07
2019-05-10T08:10:39.617Z,8.03
2019-05-10T08:13:09.389Z,14.30
2019-05-10T08:15:39.083Z,11.43
2019-05-10T08:18:09.825Z,16.30
2019-05-10T08:20:49.190Z,14.73
2019-05-10T08:23:12.900Z,11.13
2019-05-10T08:25:46.888Z,10.53
2019-05-10T08:28:12.689Z,23.50
2019-05-10T08:30:53.948Z,16.00
2019-05-10T08:33:14.895Z,17.63
2019-05-10T08:35:46.602Z,16.43
2019-05-10T08:38:15.790Z,13.63
2019-05-10T08:40:45.033Z,13.33
2019-05-10T08:43:16.918Z,11.00
2019-05-10T08:45:49.393Z,9.00
2019-05-10T08:48:18.224Z,6.93
2019-05-10T08:50:54.298Z,10.70
2019-05-10T08:53:22.941Z,8.93
2019-05-10T08:55:52.449Z,8.93
2019-05-10T08:58:31.367Z,12.60
2019-05-10T09:01:10.185Z,9.43
2019-05-10T09:03:24.045Z,8.70
2019-05-10T09:05:53.657Z,13.07
2019-05-10T09:08:27.237Z,11.93
2019-05-10T09:10:56.024Z,11.07
2019-05-10T09:13:28.689Z,8.17
2019-05-10T09:15:57.088Z,5.97
2019-05-10T09:18:26.791Z,15.87
2019-05-10T09:21:00.289Z,9.00
2019-05-10T09:23:27.241Z,12.10
2019-05-10T09:26:03.643Z,8.67
2019-05-10T09:28:28.940Z,18.27
2019-05-10T09:31:06.646Z,15.43
2019-05-10T09:33:32.027Z,13.63
2019-05-10T09:36:02.983Z,10.60
2019-05-10T09:38:37.162Z,9.00
2019-05-10T09:41:03.558Z,5.60
2019-05-10T09:43:34.824Z,5.90
2019-05-10T09:46:04.471Z,8.53
2019-05-10T09:48:33.724Z,6.73
2019-05-10T09:51:04.316Z,6.30
2019-05-10T09:53:34.096Z,7.30
2019-05-10T09:56:03.514Z,9.97
2019-05-10T09:58:33.054Z,9.23
2019-05-10T10:01:13.979Z,9.90
2019-05-10T10:03:39.891Z,6.67
2019-05-10T10:06:07.612Z,7.83
2019-05-10T10:08:38.401Z,8.00
2019-05-10T10:11:15.073Z,6.83
2019-05-10T10:13:43.776Z,4.00
2019-05-10T10:16:14.762Z,3.20
2019-05-10T10:18:42.478Z,4.23
2019-05-10T10:21:13.197Z,1.40
2019-05-10T10:23:42.677Z,5.33
2019-05-10T10:26:17.285Z,4.40
2019-05-10T10:28:43.333Z,5.37
2019-05-10T10:31:26.127Z,9.37
2019-05-10T10:33:54.924Z,4.90
2019-05-10T10:36:16.279Z,4.80
2019-05-10T10:38:49.509Z,5.47
2019-05-10T10:41:25.911Z,3.58
2019-05-10T10:43:48.519Z,2.80
2019-05-10T10:46:19.946Z,1.83
2019-05-10T10:48:51.251Z,4.67
2019-05-10T10:51:20.297Z,3.43
2019-05-10T10:53:49.890Z,3.83
2019-05-10T10:56:19.517Z,3.03
2019-05-10T10:58:50.353Z,5.73
2019-05-10T11:01:25.215Z,5.13
2019-05-10T11:03:50.623Z,6.87
2019-05-10T11:06:19.884Z,3.07
2019-05-10T11:08:51.661Z,8.70
2019-05-10T11:11:21.120Z,5.70
2019-05-10T11:13:58.157Z,4.03
2019-05-10T11:16:23.238Z,2.63
2019-05-10T11:18:52.532Z,3.10
2019-05-10T11:21:23.287Z,4.60
2019-05-10T11:23:52.868Z,5.27
2019-05-10T11:26:26.917Z,5.83
2019-05-10T11:28:53.049Z,5.03
2019-05-10T11:31:22.345Z,2.63
2019-05-10T11:33:53.809Z,3.17
2019-05-10T11:36:23.126Z,4.60
2019-05-10T11:38:58.457Z,3.97
2019-05-10T11:41:24.738Z,8.68
2019-05-10T11:43:58.099Z,5.13
2019-05-10T11:46:27.993Z,4.63
2019-05-10T11:48:56.751Z,6.77
2019-05-10T11:51:26.168Z,7.37
2019-05-10T11:53:59.685Z,5.03
2019-05-10T11:58:57.936Z,2.70
2019-05-10T12:01:27.165Z,9.97
2019-05-10T12:03:56.710Z,3.30
2019-05-10T12:06:26.044Z,4.60
2019-05-10T12:09:01.033Z,5.43
2019-05-10T12:11:33.204Z,6.90
2019-05-10T12:13:57.684Z,7.73
2019-05-10T12:16:27.772Z,11.30
2019-05-10T12:19:15.638Z,5.27
2019-05-10T12:21:28.451Z,6.60
2019-05-10T12:26:00.228Z,4.00
2019-05-10T12:26:29.496Z,6.80
2019-05-10T12:29:11.538Z,4.37
2019-05-10T12:31:32.704Z,3.58
2019-05-10T12:34:09.253Z,3.00
2019-05-10T12:36:33.136Z,4.90
2019-05-10T12:39:03.062Z,6.30
2019-05-10T12:41:32.273Z,5.10
2019-05-10T12:44:03.943Z,7.13
2019-05-10T12:46:33.016Z,7.40
2019-05-10T12:49:04.915Z,6.80
2019-05-10T12:51:33.565Z,5.43
2019-05-10T12:54:02.965Z,13.60
2019-05-10T12:56:35.118Z,10.40
2019-05-10T12:59:03.833Z,3.50
2019-05-10T13:01:33.429Z,7.30
2019-05-10T13:04:13.312Z,5.77
2019-05-10T13:06:35.161Z,6.53
2019-05-10T13:09:07.245Z,12.97
2019-05-10T13:11:37.968Z,7.13
2019-05-10T13:14:09.739Z,11.53
2019-05-10T13:16:39.022Z,7.90
2019-05-10T13:19:08.335Z,6.90
2019-05-10T13:21:37.594Z,5.60
2019-05-10T13:24:08.408Z,8.10
2019-05-10T13:26:39.431Z,6.83
2019-05-10T13:29:10.548Z,8.87
2019-05-10T13:31:42.621Z,3.00
2019-05-10T13:34:10.708Z,9.40
2019-05-10T13:36:40.246Z,11.30
2019-05-10T13:39:10.650Z,17.73
2019-05-10T13:41:40.421Z,8.00
2019-05-10T13:44:10.131Z,6.33
2019-05-10T13:46:40.737Z,7.80
2019-05-10T13:49:10.347Z,7.00
2019-05-10T13:51:40.050Z,6.63
2019-05-10T13:54:09.460Z,9.53
2019-05-10T13:56:45.343Z,12.00
2019-05-10T13:59:18.057Z,12.87
2019-05-10T14:01:44.161Z,8.50
2019-05-10T14:04:12.724Z,7.23
2019-05-10T14:06:42.306Z,12.70
2019-05-10T14:09:11.687Z,6.77
2019-05-10T14:11:46.291Z,9.57
2019-05-10T14:14:14.523Z,11.43
2019-05-10T14:16:43.243Z,7.30
2019-05-10T14:19:15.810Z,9.03
2019-05-10T14:21:44.364Z,5.03
2019-05-10T14:24:15.300Z,8.20
2019-05-10T14:26:44.790Z,9.93
2019-05-10T14:29:15.551Z,11.00
2019-05-10T14:31:46.265Z,6.83
2019-05-10T14:34:15.947Z,6.60
2019-05-10T14:36:45.775Z,7.60
2019-05-10T14:39:15.713Z,10.87
2019-05-10T14:41:50.634Z,8.80
2019-05-10T14:44:16.555Z,10.73
2019-05-10T14:46:45.805Z,9.50
2019-05-10T14:49:15.050Z,7.07
2019-05-10T14:51:58.434Z,10.10
2019-05-10T14:54:16.392Z,6.70
2019-05-10T14:56:46.743Z,3.50
2019-05-10T14:59:16.286Z,4.47
2019-05-10T15:01:45.835Z,10.03
2019-05-10T15:04:20.244Z,7.97
2019-05-10T15:06:46.402Z,4.53
2019-05-10T15:09:21.489Z,9.60
2019-05-10T15:11:48.620Z,9.87
2019-05-10T15:14:18.230Z,8.77
2019-05-10T15:16:48.143Z,6.23
2019-05-10T15:19:17.402Z,7.10
2019-05-10T15:21:46.739Z,12.83
2019-05-10T15:24:15.939Z,6.60
2019-05-10T15:26:48.065Z,6.97
2019-05-10T15:29:22.369Z,10.87
2019-05-10T15:31:48.655Z,5.90
2019-05-10T15:34:18.199Z,6.43
2019-05-10T15:36:49.058Z,8.57
2019-05-10T15:39:22.905Z,8.70
2019-05-10T15:41:53.471Z,5.50
2019-05-10T15:44:30.107Z,12.17
2019-05-10T15:46:53.328Z,8.23
2019-05-10T15:49:24.474Z,6.90
2019-05-10T15:52:01.369Z,5.70
2019-05-10T15:54:25.703Z,11.70
2019-05-10T15:56:55.924Z,6.70
2019-05-10T15:59:25.321Z,10.17
2019-05-10T16:01:54.923Z,6.87
2019-05-10T16:04:24.181Z,6.53
2019-05-10T16:06:53.427Z,6.60
2019-05-10T16:09:22.688Z,11.10
2019-05-10T16:11:55.907Z,7.10
2019-05-10T16:14:24.087Z,14.30
2019-05-10T16:16:55.797Z,13.13
2019-05-10T16:19:25.218Z,6.20
2019-05-10T16:21:58.034Z,7.60
2019-05-10T16:24:27.787Z,11.83
2019-05-10T16:27:00.159Z,7.07
2019-05-10T16:29:33.614Z,8.00
2019-05-10T16:32:00.692Z,6.07
2019-05-10T16:34:32.324Z,9.70
2019-05-10T16:37:01.321Z,8.73
2019-05-10T16:39:30.873Z,6.60
2019-05-10T16:42:02.173Z,19.43
2019-05-10T16:44:31.763Z,7.50
2019-05-10T16:47:00.992Z,8.00
2019-05-10T16:49:30.588Z,8.23
2019-05-10T16:51:59.823Z,6.40
2019-05-10T16:54:31.929Z,11.53
2019-05-10T16:57:01.715Z,3.97
2019-05-10T16:59:35.062Z,4.20
2019-05-10T17:02:06.493Z,8.47
2019-05-10T17:04:37.439Z,7.23
2019-05-10T17:07:13.002Z,14.50
2019-05-10T17:09:39.450Z,8.00
2019-05-10T17:12:08.848Z,10.03
2019-05-10T17:14:38.122Z,12.20
2019-05-10T17:17:09.144Z,19.23
2019-05-10T17:19:38.466Z,5.93
2019-05-10T17:22:09.853Z,8.35
2019-05-10T17:24:39.143Z,6.30
2019-05-10T17:27:08.637Z,12.70
2019-05-10T17:29:39.677Z,7.77
2019-05-10T17:32:09.885Z,9.40
2019-05-10T17:34:39.564Z,10.90
2019-05-10T17:37:09.362Z,12.73
2019-05-10T17:39:38.777Z,7.23
2019-05-10T17:42:08.149Z,12.17
2019-05-10T17:44:37.560Z,7.87
2019-05-10T17:47:07.174Z,6.33
2019-05-10T17:49:36.407Z,11.33
2019-05-10T17:52:06.805Z,10.60
2019-05-10T17:54:39.322Z,7.30
2019-05-10T17:57:10.723Z,9.33
2019-05-10T17:59:38.522Z,10.47
2019-05-10T18:02:08.771Z,8.00
2019-05-10T18:04:38.441Z,9.53
2019-05-10T18:07:09.619Z,8.07
2019-05-10T18:09:39.729Z,9.50
2019-05-10T18:12:09.599Z,7.83
2019-05-10T18:14:39.436Z,6.50
2019-05-10T18:17:09.109Z,5.17
2019-05-10T18:19:39.921Z,7.80
2019-05-10T18:22:10.998Z,5.23
2019-05-10T18:24:42.125Z,5.70
2019-05-10T18:27:11.193Z,7.03
2019-05-10T18:29:41.235Z,9.10
2019-05-10T18:32:11.353Z,13.87
2019-05-10T18:35:01.685Z,9.47
2019-05-10T18:37:31.297Z,10.10
2019-05-10T18:40:00.538Z,13.33
2019-05-10T18:42:30.202Z,11.60
2019-05-10T18:44:59.809Z,7.87
2019-05-10T18:47:29.389Z,9.03
2019-05-10T18:50:00.153Z,8.60
2019-05-10T18:52:30.058Z,12.10
2019-05-10T18:54:59.577Z,9.67
2019-05-10T18:57:28.842Z,16.62
2019-05-10T18:59:59.223Z,8.83
2019-05-10T19:02:28.489Z,6.53
2019-05-10T19:04:57.728Z,7.50
2019-05-10T19:07:28.838Z,11.93
2019-05-10T19:09:58.099Z,6.73
2019-05-10T19:12:28.417Z,12.90
2019-05-10T19:15:02.385Z,8.83
2019-05-10T19:17:28.958Z,21.37
2019-05-10T19:19:58.603Z,6.23
2019-05-10T19:22:28.148Z,11.03
2019-05-10T19:24:57.711Z,6.13
2019-05-10T19:27:28.001Z,9.20
2019-05-10T19:29:57.643Z,5.93
2019-05-10T19:32:27.593Z,11.13
2019-05-10T19:34:59.049Z,13.10
2019-05-10T19:37:34.100Z,8.20
2019-05-10T19:39:59.850Z,19.13
2019-05-10T19:42:31.548Z,12.83
2019-05-10T19:45:01.050Z,10.40
2019-05-10T19:47:30.275Z,8.00
2019-05-10T19:49:59.791Z,11.10
2019-05-10T19:52:29.040Z,15.03
2019-05-10T19:54:58.334Z,9.77
2019-05-10T19:57:28.209Z,11.10
2019-05-10T19:59:57.545Z,16.43
2019-05-10T20:02:27.109Z,16.03
2019-05-10T20:04:56.795Z,9.70
2019-05-10T20:07:26.189Z,8.23
2019-05-10T20:09:55.491Z,11.77
2019-05-10T20:12:25.201Z,11.70
2019-05-10T20:14:55.785Z,10.20
2019-05-10T20:17:25.166Z,11.67
2019-05-10T20:19:59.289Z,9.77
2019-05-10T20:22:28.541Z,8.87
2019-05-10T20:24:57.903Z,13.03
2019-05-10T20:27:28.005Z,13.77
2019-05-10T20:29:57.286Z,14.73
2019-05-10T20:32:26.600Z,21.07
2019-05-10T20:34:56.219Z,21.97
2019-05-10T20:37:25.511Z,13.10
2019-05-10T20:39:55.033Z,12.13
2019-05-10T20:42:24.739Z,20.00
2019-05-10T20:45:06.796Z,12.63
2019-05-10T20:47:26.415Z,13.53
2019-05-10T20:49:56.124Z,16.13
2019-05-10T20:52:25.716Z,11.90
2019-05-10T20:54:55.864Z,15.10
2019-05-10T20:57:26.202Z,9.53
2019-05-10T20:59:56.574Z,19.00
2019-05-10T21:02:27.911Z,11.70
2019-05-10T21:04:57.858Z,14.33
2019-05-10T21:07:28.909Z,11.80
2019-05-10T21:10:00.016Z,20.03
2019-05-10T21:12:29.470Z,21.30
2019-05-10T21:15:01.507Z,19.53
2019-05-10T21:17:31.152Z,16.60
2019-05-10T21:20:20.987Z,22.17
2019-05-10T21:22:50.688Z,11.23
2019-05-10T21:25:21.139Z,12.63
2019-05-10T21:27:51.898Z,14.87
2019-05-10T21:30:21.620Z,13.63
2019-05-10T21:32:51.541Z,14.80
2019-05-10T21:35:20.857Z,20.07
2019-05-10T21:37:52.176Z,15.87
2019-05-10T21:40:21.480Z,17.50
2019-05-10T21:42:52.638Z,17.83
2019-05-10T21:45:23.705Z,35.33
2019-05-10T21:47:55.547Z,15.60
2019-05-10T21:50:24.819Z,20.20
2019-05-10T21:52:56.205Z,13.30
2019-05-10T21:55:27.061Z,15.07
2019-05-10T21:57:56.336Z,15.27
2019-05-10T22:00:29.212Z,15.90
2019-05-10T22:02:59.582Z,17.43
2019-05-10T22:05:30.992Z,20.60
2019-05-10T22:08:00.332Z,14.90
2019-05-10T22:10:30.885Z,13.97
2019-05-10T22:13:00.197Z,17.53
2019-05-10T22:15:29.465Z,22.60
2019-05-10T22:18:00.892Z,13.27
2019-05-10T22:20:30.164Z,9.70
2019-05-10T22:22:59.515Z,16.13
2019-05-10T22:25:30.411Z,9.20
2019-05-10T22:28:01.151Z,15.30
2019-05-10T22:30:30.804Z,11.20
2019-05-10T22:33:02.922Z,14.73
2019-05-10T22:35:32.264Z,8.13
2019-05-10T22:38:01.839Z,12.70
2019-05-10T22:40:31.850Z,9.63
2019-05-10T22:43:01.075Z,19.43
2019-05-10T22:45:30.317Z,12.70
2019-05-10T22:47:59.736Z,15.90
2019-05-10T22:50:29.261Z,11.70
2019-05-10T22:52:58.603Z,16.27
2019-05-10T22:55:27.866Z,10.97
2019-05-10T22:57:57.100Z,13.60
2019-05-10T23:00:26.879Z,15.63
2019-05-10T23:02:56.488Z,20.03
2019-05-10T23:05:25.729Z,12.80
2019-05-10T23:07:55.322Z,14.87
2019-05-10T23:10:24.943Z,11.03
2019-05-10T23:12:54.260Z,14.10
2019-05-10T23:15:23.801Z,14.93
2019-05-10T23:17:53.056Z,15.07
2019-05-10T23:20:23.203Z,11.97
2019-05-10T23:22:52.778Z,15.30
2019-05-10T23:25:22.223Z,13.10
2019-05-10T23:27:51.462Z,10.67
2019-05-10T23:30:20.958Z,9.00
2019-05-10T23:32:50.939Z,15.20
2019-05-10T23:35:20.186Z,14.93
2019-05-10T23:37:49.779Z,13.40
2019-05-10T23:40:19.323Z,9.40
2019-05-10T23:42:48.541Z,18.13
2019-05-10T23:45:18.048Z,12.83
2019-05-10T23:47:47.261Z,18.13
2019-05-10T23:50:16.546Z,8.10
2019-05-10T23:52:45.804Z,12.17
2019-05-10T23:55:15.402Z,15.10
2019-05-10T23:57:45.005Z,13.73
